Lesley Pg — MXUG5 — position and weather

sailwx.info

Track history (hours):
 
Tides and Currents Weather Stations Pressure Air Temp Water Temp Dewpoint Dewpoint Depression Visibility Wind Speed Wind Dir Waves Ship Positions

Lesley Pg

Last reported at 2015-Jul-05 15:17 UTC. Time now 2015-Jul-08 02:13 UTC.
Position N 13°54' W 061°07'.

Length 102 m; draft 6.1 m.

Type: Tanker. MMSI: 234910000.

Date/timePositionNaut miles runAvg speedWind from/ knotsBaromVisibWave heightAir tempDewpointWater temp
2015-Jul-05 15:17N 13°54' W 061°07'6 0.4
2015-Jul-04 23:33N 13°60' W 061°04'  
2015-Jun-28 09:29N 14°12' W 061°43'13610.5
2015-Jun-27 20:33N 16°19' W 062°35'8410.5
2015-Jun-27 12:31N 17°38' W 063°04'1010.7
2015-Jun-27 11:33N 17°48' W 063°05'1110.9
2015-Jun-27 10:33N 17°59' W 063°05'2 1.8
2015-Jun-27 09:24N 18°01' W 063°05'0 0.0
2015-Jun-27 08:30N 18°01' W 063°05'0 0.0
2015-Jun-27 07:32N 18°01' W 063°05'0 0.0
2015-Jun-27 06:33N 18°01' W 063°05'0 0.0
2015-Jun-27 05:32N 18°01' W 063°05'0 0.0
2015-Jun-27 04:33N 18°01' W 063°05'0 0.0
2015-Jun-27 03:32N 18°01' W 063°05'0 0.0
2015-Jun-27 02:31N 18°01' W 063°05'0 0.0
2015-Jun-27 01:32N 18°01' W 063°05'0 0.0
2015-Jun-27 00:33N 18°01' W 063°05'0 0.0
2015-Jun-26 23:32N 18°01' W 063°05'0 0.0
2015-Jun-26 22:32N 18°01' W 063°05'0 0.0
2015-Jun-26 21:28N 18°01' W 063°05'0 0.0
2015-Jun-26 20:32N 18°01' W 063°05'0 0.0
2015-Jun-26 19:31N 18°01' W 063°05'0 0.0
2015-Jun-26 18:32N 18°01' W 063°05'3 3.4
2015-Jun-26 17:33N 17°58' W 063°05'1010.4
2015-Jun-26 16:33N 17°48' W 063°09'14 2.2
2015-Jun-26 10:16N 17°37' W 063°16'  
Track history (hours):
 
Tides and Currents Weather Stations Pressure Air Temp Water Temp Dewpoint Dewpoint Depression Visibility Wind Speed Wind Dir Waves Ship Positions

Lesley Pg

Last reported at 2015-Jul-05 15:17 UTC. Time now 2015-Jul-08 02:13 UTC.
Position N 13°54' W 061°07'.

Length 102 m; draft 6.1 m.

Type: Tanker. MMSI: 234910000.

Date/timePositionNaut miles runAvg speedWind from/ knotsBaromVisibWave heightAir tempDewpointWater temp
2015-Jul-05 15:17N 13°54' W 061°07'6 0.4
2015-Jul-04 23:33N 13°60' W 061°04'  
2015-Jun-28 09:29N 14°12' W 061°43'13610.5
2015-Jun-27 20:33N 16°19' W 062°35'8410.5
2015-Jun-27 12:31N 17°38' W 063°04'1010.7
2015-Jun-27 11:33N 17°48' W 063°05'1110.9
2015-Jun-27 10:33N 17°59' W 063°05'2 1.8
2015-Jun-27 09:24N 18°01' W 063°05'0 0.0
2015-Jun-27 08:30N 18°01' W 063°05'0 0.0
2015-Jun-27 07:32N 18°01' W 063°05'0 0.0
2015-Jun-27 06:33N 18°01' W 063°05'0 0.0
2015-Jun-27 05:32N 18°01' W 063°05'0 0.0
2015-Jun-27 04:33N 18°01' W 063°05'0 0.0
2015-Jun-27 03:32N 18°01' W 063°05'0 0.0
2015-Jun-27 02:31N 18°01' W 063°05'0 0.0
2015-Jun-27 01:32N 18°01' W 063°05'0 0.0
2015-Jun-27 00:33N 18°01' W 063°05'0 0.0
2015-Jun-26 23:32N 18°01' W 063°05'0 0.0
2015-Jun-26 22:32N 18°01' W 063°05'0 0.0
2015-Jun-26 21:28N 18°01' W 063°05'0 0.0
2015-Jun-26 20:32N 18°01' W 063°05'0 0.0
2015-Jun-26 19:31N 18°01' W 063°05'0 0.0
2015-Jun-26 18:32N 18°01' W 063°05'3 3.4
2015-Jun-26 17:33N 17°58' W 063°05'1010.4
2015-Jun-26 16:33N 17°48' W 063°09'14 2.2
2015-Jun-26 10:16N 17°37' W 063°16'  

Dump ship's entire track history